Time;durP1;ratioP1;P1;durP2;ratioP2;P2;SDS_P1;SDS_P2;PMS_P1;PMS_P2;Temp;Humidity;BMP_temperature;BMP_pressure;BME280_temperature;BME280_humidity;BME280_pressure;Samples;Min_cycle;Max_cycle;Signal;HPM_P1;HPM_P2
2022/04/23 00:00:50;;;;;;;;;;;;;;;22.08;28.26;97198.91;5078667;28;884;-78
2022/04/23 00:03:15;;;;;;;;;;;;;;;21.60;28.90;97187.06;5078243;28;880;-78
2022/04/23 00:05:41;;;;;;;;;;;;;;;21.17;29.54;97194.34;5079062;28;890;-78
2022/04/23 00:08:08;;;;;;;;;;;;;;;21.00;29.81;97198.66;5078072;28;940;-78
2022/04/23 00:10:34;;;;;;;;;;;;;;;21.29;29.64;97196.31;5109515;28;1894;-78
2022/04/23 00:12:59;;;;;;;;;;;;;;;21.71;28.91;97198.78;5077875;28;961;-79
2022/04/23 00:15:25;;;;;;;;;;;;;;;22.02;28.28;97181.75;5078127;28;887;-78
2022/04/23 00:17:51;;;;;;;;;;;;;;;21.68;28.51;97188.38;5078250;28;1029;-78
2022/04/23 00:20:18;;;;;;;;;;;;;;;21.33;29.15;97180.00;5075731;28;1324;-79
2022/04/23 00:22:44;;;;;;;;;;;;;;;21.10;29.21;97162.72;5078050;28;1480;-78
2022/04/23 00:25:09;;;;;;;;;;;;;;;21.17;29.10;97177.38;5078254;28;872;-78
2022/04/23 00:27:35;;;;;;;;;;;;;;;21.57;29.20;97171.03;5077863;28;891;-76
2022/04/23 00:30:00;;;;;;;;;;;;;;;21.89;28.69;97174.59;5077451;28;1963;-76
2022/04/23 00:32:26;;;;;;;;;;;;;;;21.79;28.34;97165.28;5077960;28;919;-75
2022/04/23 00:34:51;;;;;;;;;;;;;;;21.36;28.92;97163.38;5077898;28;914;-76
2022/04/23 00:37:17;;;;;;;;;;;;;;;21.08;29.22;97163.97;5077613;28;1162;-76
2022/04/23 00:39:42;;;;;;;;;;;;;;;21.08;29.18;97163.16;5077813;28;912;-76
2022/04/23 00:42:11;;;;;;;;;;;;;;;21.21;29.90;97161.06;5077799;28;887;-76
2022/04/23 00:44:38;;;;;;;;;;;;;;;21.69;28.98;97149.53;5091766;28;973;-76
2022/04/23 00:47:04;;;;;;;;;;;;;;;21.93;28.38;97138.44;5077627;28;1407;-76
2022/04/23 00:49:30;;;;;;;;;;;;;;;21.95;28.22;97124.59;5110157;28;879;-76
2022/04/23 00:51:55;;;;;;;;;;;;;;;21.51;28.84;97127.59;5077359;28;1988;-76
2022/04/23 00:54:22;;;;;;;;;;;;;;;21.31;29.11;97136.47;5077591;28;863;-76
2022/04/23 00:56:47;;;;;;;;;;;;;;;21.20;29.13;97131.19;5109373;28;932;-76
2022/04/23 00:59:13;;;;;;;;;;;;;;;21.51;29.51;97105.75;5109585;28;955;-75
2022/04/23 01:01:42;;;;;;;;;;;;;;;21.89;28.60;97106.63;5077438;28;943;-76
2022/04/23 01:04:08;;;;;;;;;;;;;;;22.05;28.15;97092.19;5077233;28;846;-76
2022/04/23 01:06:34;;;;;;;;;;;;;;;21.51;28.71;97096.47;5077190;28;851;-77
2022/04/23 01:09:06;;;;;;;;;;;;;;;21.37;28.81;97082.88;5077355;28;890;-76
2022/04/23 01:11:32;;;;;;;;;;;;;;;21.31;28.62;97103.31;5077235;28;1918;-76
2022/04/23 01:13:58;;;;;;;;;;;;;;;21.57;29.20;97098.22;5076706;28;1005;-76
2022/04/23 01:16:23;;;;;;;;;;;;;;;22.02;28.29;97081.78;5076608;28;885;-76
2022/04/23 01:18:48;;;;;;;;;;;;;;;21.99;28.47;97068.56;5077076;28;875;-76
2022/04/23 01:21:14;;;;;;;;;;;;;;;22.15;27.96;97079.63;5093965;28;1409;-75
2022/04/23 01:23:41;;;;;;;;;;;;;;;21.80;28.50;97079.88;5094202;28;887;-76
2022/04/23 01:26:08;;;;;;;;;;;;;;;21.40;28.99;97056.47;5094424;28;971;-76
2022/04/23 01:28:33;;;;;;;;;;;;;;;21.04;29.39;97078.47;5077599;28;1067;-76
2022/04/23 01:30:59;;;;;;;;;;;;;;;21.01;29.69;97073.72;5053726;28;1919;-76
2022/04/23 01:33:24;;;;;;;;;;;;;;;21.29;30.22;97077.47;5054273;28;959;-77
2022/04/23 01:35:50;;;;;;;;;;;;;;;21.83;28.63;97075.31;5054205;28;952;-76
2022/04/23 01:38:15;;;;;;;;;;;;;;;22.03;28.32;97086.22;5054390;28;934;-76
2022/04/23 01:40:41;;;;;;;;;;;;;;;21.48;28.98;97075.53;5054282;28;860;-76
2022/04/23 01:43:08;;;;;;;;;;;;;;;21.17;29.48;97092.50;5053574;28;1101;-76
2022/04/23 01:45:33;;;;;;;;;;;;;;;21.17;29.55;97084.03;5054004;28;1092;-76
2022/04/23 01:47:59;;;;;;;;;;;;;;;21.45;29.61;97078.50;5053736;28;1018;-76
2022/04/23 01:50:24;;;;;;;;;;;;;;;21.78;28.60;97088.06;5053679;28;1910;-76
2022/04/23 01:52:50;;;;;;;;;;;;;;;22.12;28.11;97086.22;5054141;28;975;-76
2022/04/23 01:55:15;;;;;;;;;;;;;;;21.61;28.68;97092.41;5069862;28;1048;-76
2022/04/23 01:57:41;;;;;;;;;;;;;;;21.45;28.97;97087.81;5053257;28;937;-75
2022/04/23 02:00:08;;;;;;;;;;;;;;;21.24;28.84;97086.59;5053454;28;1287;-76
2022/04/23 02:02:37;;;;;;;;;;;;;;;21.31;29.73;97075.00;5069505;28;954;-77
2022/04/23 02:05:03;;;;;;;;;;;;;;;21.75;29.05;97063.50;5053463;28;953;-77
2022/04/23 02:07:29;;;;;;;;;;;;;;;22.08;28.23;97057.25;5056056;28;1012;-77
2022/04/23 02:09:54;;;;;;;;;;;;;;;21.53;28.73;97046.63;5075734;28;1017;-76
2022/04/23 02:12:20;;;;;;;;;;;;;;;21.21;29.32;97035.81;5075905;28;1985;-78
2022/04/23 02:14:46;;;;;;;;;;;;;;;21.13;29.39;97042.97;5075784;28;939;-76
2022/04/23 02:17:12;;;;;;;;;;;;;;;21.07;29.66;97065.44;5075800;28;910;-77
2022/04/23 02:19:37;;;;;;;;;;;;;;;21.55;29.37;97043.31;5075670;28;881;-77
2022/04/23 02:22:03;;;;;;;;;;;;;;;22.03;28.39;97021.06;5113524;28;1141;-77
2022/04/23 02:24:30;;;;;;;;;;;;;;;21.98;28.09;97052.84;5113944;28;1112;-77
2022/04/23 02:26:55;;;;;;;;;;;;;;;21.42;29.13;97045.50;5113518;28;1023;-77
2022/04/23 02:29:21;;;;;;;;;;;;;;;21.18;29.13;97057.31;5113774;28;911;-77
2022/04/23 02:31:46;;;;;;;;;;;;;;;21.12;29.20;97073.31;5113669;28;1914;-77
2022/04/23 02:34:12;;;;;;;;;;;;;;;21.40;29.68;97070.63;5113809;28;1013;-76
2022/04/23 02:36:38;;;;;;;;;;;;;;;21.93;28.71;97071.25;5113379;28;934;-77
2022/04/23 02:39:03;;;;;;;;;;;;;;;22.03;28.51;97066.38;5113620;28;958;-76
2022/04/23 02:41:29;;;;;;;;;;;;;;;21.74;28.39;97081.75;5113183;28;1420;-77
2022/04/23 02:43:54;;;;;;;;;;;;;;;21.38;28.95;97078.81;5113439;28;1064;-77
2022/04/23 02:46:20;;;;;;;;;;;;;;;21.11;29.50;97077.41;5113715;28;954;-77
2022/04/23 02:48:45;;;;;;;;;;;;;;;21.22;29.12;97076.97;5113306;28;1298;-76
2022/04/23 02:51:15;;;;;;;;;;;;;;;21.38;29.74;97056.16;5113569;28;1905;-77
2022/04/23 02:53:41;;;;;;;;;;;;;;;21.77;28.68;97049.66;5078334;28;930;-77
2022/04/23 02:56:13;;;;;;;;;;;;;;;21.88;28.62;97065.41;5075062;28;1147;-77
2022/04/23 02:58:39;;;;;;;;;;;;;;;21.44;29.17;97059.94;5075103;28;981;-76
2022/04/23 03:01:04;;;;;;;;;;;;;;;21.27;29.23;97068.66;5075403;28;949;-76
2022/04/23 03:03:30;;;;;;;;;;;;;;;21.36;29.36;97058.69;5075186;28;1085;-77
2022/04/23 03:05:55;;;;;;;;;;;;;;;21.84;28.76;97048.56;5075507;28;1011;-77
2022/04/23 03:08:23;;;;;;;;;;;;;;;22.06;28.16;97049.22;5074236;28;849;-76
2022/04/23 03:10:49;;;;;;;;;;;;;;;21.54;28.68;97041.75;5075423;28;1905;-77
2022/04/23 03:13:14;;;;;;;;;;;;;;;21.19;29.63;97043.94;5075286;28;936;-76
2022/04/23 03:15:40;;;;;;;;;;;;;;;21.04;29.53;97038.09;5075165;28;1159;-77
2022/04/23 03:18:07;;;;;;;;;;;;;;;21.13;29.54;97046.59;5074841;28;886;-77
2022/04/23 03:20:33;;;;;;;;;;;;;;;21.62;28.97;97048.69;5074702;28;793;-77
2022/04/23 03:22:58;;;;;;;;;;;;;;;21.89;28.77;97044.34;5074569;28;1044;-76
2022/04/23 03:25:24;;;;;;;;;;;;;;;21.92;28.19;97024.38;5074883;28;864;-76
2022/04/23 03:27:50;;;;;;;;;;;;;;;21.36;29.06;97041.69;5075310;28;762;-77
2022/04/23 03:30:16;;;;;;;;;;;;;;;21.15;29.15;97044.09;5074816;28;1981;-77
2022/04/23 03:32:42;;;;;;;;;;;;;;;21.10;29.12;97041.88;5075412;28;791;-77
2022/04/23 03:35:07;;;;;;;;;;;;;;;21.36;29.86;97041.69;5074912;28;782;-77
2022/04/23 03:37:33;;;;;;;;;;;;;;;21.75;29.01;97029.50;5074722;28;770;-77
2022/04/23 03:39:59;;;;;;;;;;;;;;;22.06;28.35;97020.88;5074846;28;731;-77
2022/04/23 03:42:24;;;;;;;;;;;;;;;21.82;28.44;97005.78;5074842;28;711;-77
2022/04/23 03:44:50;;;;;;;;;;;;;;;21.35;28.90;97000.50;5074523;28;838;-76
2022/04/23 03:47:15;;;;;;;;;;;;;;;21.15;29.23;96998.84;5074759;28;750;-77
2022/04/23 03:49:41;;;;;;;;;;;;;;;21.06;29.63;97001.63;5074353;28;876;-76
2022/04/23 03:52:06;;;;;;;;;;;;;;;21.61;29.27;97013.16;5074766;28;1987;-76
2022/04/23 03:54:32;;;;;;;;;;;;;;;21.92;28.59;96998.88;5074319;28;920;-77
2022/04/23 03:56:57;;;;;;;;;;;;;;;21.80;28.44;96992.09;5074827;28;936;-76
2022/04/23 03:59:23;;;;;;;;;;;;;;;21.40;29.12;96985.72;5074930;28;895;-77
2022/04/23 04:01:49;;;;;;;;;;;;;;;21.20;29.46;96988.97;5107144;28;953;-77
2022/04/23 04:04:15;;;;;;;;;;;;;;;21.05;29.29;96992.38;5107183;28;1123;-76
2022/04/23 04:06:41;;;;;;;;;;;;;;;20.97;29.77;96993.09;5074818;28;937;-77
2022/04/23 04:09:06;;;;;;;;;;;;;;;21.69;29.02;96997.44;5074740;28;1030;-77
2022/04/23 04:12:01;;;;;;;;;;;;;;;21.92;28.24;96996.03;5074856;28;1925;-76
2022/04/23 04:14:17;;;;;;;;;;;;;;;21.61;28.59;96995.38;5100631;28;967;-77
2022/04/23 04:16:42;;;;;;;;;;;;;;;21.28;29.27;96996.69;5074414;28;1194;-77
2022/04/23 04:19:08;;;;;;;;;;;;;;;21.11;29.16;96998.19;5113101;28;1010;-77
2022/04/23 04:21:33;;;;;;;;;;;;;;;21.10;30.04;96995.84;5116115;28;1133;-77
2022/04/23 04:23:59;;;;;;;;;;;;;;;21.78;28.79;96983.28;5109865;28;1208;-78
2022/04/23 04:26:24;;;;;;;;;;;;;;;22.02;28.09;96991.13;5104825;28;1308;-77
2022/04/23 04:28:50;;;;;;;;;;;;;;;21.93;28.08;96988.34;5106175;28;1240;-77
2022/04/23 04:33:59;;;;;;;;;;;;;;;21.07;29.58;97004.00;5103168;28;1245;-77
2022/04/23 04:36:25;;;;;;;;;;;;;;;21.40;29.39;97002.72;5109011;28;1224;-77
2022/04/23 04:38:50;;;;;;;;;;;;;;;21.73;28.61;97012.22;5095005;28;933;-77
2022/04/23 04:41:16;;;;;;;;;;;;;;;22.02;28.01;97006.13;5095494;28;976;-77
2022/04/23 04:43:41;;;;;;;;;;;;;;;21.52;28.46;97013.13;5094175;28;1172;-76
2022/04/23 04:46:08;;;;;;;;;;;;;;;21.26;29.13;97019.00;5084609;28;1237;-77
2022/04/23 04:48:33;;;;;;;;;;;;;;;21.23;28.74;97014.25;5083934;28;1208;-77
2022/04/23 04:50:59;;;;;;;;;;;;;;;21.05;29.04;97011.38;5059806;28;1909;-75
2022/04/23 04:53:24;;;;;;;;;;;;;;;21.43;29.68;97008.22;5054483;28;1309;-77
2022/04/23 04:55:50;;;;;;;;;;;;;;;21.84;28.32;97006.88;5054332;28;1317;-77
2022/04/23 04:58:15;;;;;;;;;;;;;;;22.18;28.17;96993.72;5054289;28;1260;-77
2022/04/23 05:00:41;;;;;;;;;;;;;;;21.57;28.75;97001.19;5054241;28;1358;-76
2022/04/23 05:03:06;;;;;;;;;;;;;;;21.34;28.93;97011.03;5054013;28;1323;-77
2022/04/23 05:05:32;;;;;;;;;;;;;;;21.20;29.37;97012.38;5054443;28;887;-77
2022/04/23 05:07:57;;;;;;;;;;;;;;;21.06;29.69;97007.28;5054914;28;926;-77
2022/04/23 05:10:23;;;;;;;;;;;;;;;21.59;28.92;97012.81;5083682;28;1905;-76
2022/04/23 05:12:48;;;;;;;;;;;;;;;21.84;28.48;97004.03;5056965;28;1038;-78
2022/04/23 05:15:14;;;;;;;;;;;;;;;21.79;28.40;97007.50;5057046;28;909;-78
2022/04/23 05:17:39;;;;;;;;;;;;;;;21.30;29.03;97018.91;5056956;28;953;-77
2022/04/23 05:20:05;;;;;;;;;;;;;;;21.16;29.27;97020.22;5057400;28;887;-77
2022/04/23 05:22:31;;;;;;;;;;;;;;;21.10;29.40;97010.78;5057217;28;1029;-77
2022/04/23 05:24:57;;;;;;;;;;;;;;;21.27;29.86;97005.63;5056821;28;920;-77
2022/04/23 05:27:25;;;;;;;;;;;;;;;21.75;28.79;97001.19;5056873;28;1009;-77
2022/04/23 05:29:51;;;;;;;;;;;;;;;21.83;28.24;96996.81;5056718;28;903;-77
2022/04/23 05:32:17;;;;;;;;;;;;;;;21.44;28.94;96997.69;5055681;28;1902;-77
2022/04/23 05:34:43;;;;;;;;;;;;;;;21.28;29.18;97002.34;5056960;28;861;-77
2022/04/23 05:37:08;;;;;;;;;;;;;;;21.18;29.38;96997.91;5056832;28;946;-77
2022/04/23 05:39:34;;;;;;;;;;;;;;;21.04;29.73;96992.84;5114678;28;1031;-77
2022/04/23 05:41:59;;;;;;;;;;;;;;;20.98;29.65;96991.84;5114621;28;996;-78
2022/04/23 05:44:25;;;;;;;;;;;;;;;21.05;29.61;96994.41;5094089;28;1540;-77
2022/04/23 05:46:50;;;;;;;;;;;;;;;21.64;28.92;96995.22;5114707;28;917;-77
2022/04/23 05:49:16;;;;;;;;;;;;;;;21.80;28.70;96994.91;5114452;28;1079;-77
2022/04/23 05:51:41;;;;;;;;;;;;;;;21.70;28.77;97004.66;5114268;28;1906;-77
2022/04/23 05:54:06;;;;;;;;;;;;;;;21.24;29.61;97017.88;5114332;28;910;-78
2022/04/23 05:56:32;;;;;;;;;;;;;;;21.21;29.64;97022.44;5114282;28;958;-77
2022/04/23 05:58:57;;;;;;;;;;;;;;;21.06;29.87;97029.91;5114146;28;984;-77
2022/04/23 06:01:23;;;;;;;;;;;;;;;21.39;29.49;97035.09;5114239;28;962;-76
2022/04/23 06:03:48;;;;;;;;;;;;;;;21.89;28.71;97038.66;5096851;28;1301;-77
2022/04/23 06:06:14;;;;;;;;;;;;;;;22.07;28.39;97033.81;5114614;28;942;-78
2022/04/23 06:08:42;;;;;;;;;;;;;;;21.52;29.04;97039.38;5114187;28;945;-77
2022/04/23 06:11:08;;;;;;;;;;;;;;;21.27;29.66;97031.88;5085874;28;1897;-77
2022/04/23 06:13:33;;;;;;;;;;;;;;;21.13;29.91;97035.28;5098922;28;1196;-76
2022/04/23 06:15:58;;;;;;;;;;;;;;;21.29;29.84;97040.69;5070212;28;1230;-77
2022/04/23 06:18:25;;;;;;;;;;;;;;;21.88;28.73;97031.44;5074200;28;1561;-77
2022/04/23 06:20:50;;;;;;;;;;;;;;;21.94;28.71;97019.00;5075601;28;1260;-77
2022/04/23 06:23:16;;;;;;;;;;;;;;;21.49;29.31;97014.06;5075648;28;1439;-77
2022/04/23 06:25:41;;;;;;;;;;;;;;;21.31;29.71;97018.41;5072835;28;1445;-76
2022/04/23 06:28:10;;;;;;;;;;;;;;;21.27;29.81;97029.06;5075720;28;1673;-77
2022/04/23 06:30:36;;;;;;;;;;;;;;;21.10;29.91;97022.09;5075532;28;1901;-77
2022/04/23 06:33:01;;;;;;;;;;;;;;;21.58;29.74;97019.75;5113385;28;1159;-77
2022/04/23 06:35:27;;;;;;;;;;;;;;;21.87;29.04;97024.22;5113863;28;940;-77
2022/04/23 06:37:54;;;;;;;;;;;;;;;21.72;29.29;97030.47;5113453;28;978;-77
2022/04/23 06:40:19;;;;;;;;;;;;;;;21.25;30.02;97028.75;5113991;28;1041;-77
2022/04/23 06:42:45;;;;;;;;;;;;;;;21.14;30.35;97025.56;5078966;28;1003;-76
2022/04/23 06:45:11;;;;;;;;;;;;;;;21.22;30.03;97026.84;5093116;28;1120;-77
2022/04/23 06:47:36;;;;;;;;;;;;;;;21.30;30.44;97028.16;5059101;28;1396;-77
2022/04/23 06:50:02;;;;;;;;;;;;;;;21.91;29.22;97024.81;5093722;28;1000;-77
2022/04/23 06:52:27;;;;;;;;;;;;;;;21.94;28.92;97023.88;5093015;28;1979;-77
2022/04/23 06:54:54;;;;;;;;;;;;;;;21.40;29.96;97031.81;5092948;28;958;-77
2022/04/23 06:57:21;;;;;;;;;;;;;;;21.20;30.10;97020.88;5093152;28;1166;-76
2022/04/23 06:59:47;;;;;;;;;;;;;;;21.23;29.94;97031.25;5059211;28;1114;-77
2022/04/23 07:02:12;;;;;;;;;;;;;;;21.09;30.30;97017.69;5093101;28;1070;-77
2022/04/23 07:04:38;;;;;;;;;;;;;;;21.50;30.11;97012.78;5077410;28;1017;-77
2022/04/23 07:07:05;;;;;;;;;;;;;;;22.03;28.91;97009.72;5072824;28;993;-77
2022/04/23 07:09:31;;;;;;;;;;;;;;;21.65;29.72;97013.78;5072538;28;893;-77
2022/04/23 07:11:58;;;;;;;;;;;;;;;21.38;30.02;97005.22;5072407;28;1914;-77
2022/04/23 07:14:23;;;;;;;;;;;;;;;21.14;30.50;97008.59;5072531;28;913;-77
2022/04/23 07:16:49;;;;;;;;;;;;;;;21.11;30.64;97006.69;5074318;28;997;-77
2022/04/23 07:19:14;;;;;;;;;;;;;;;21.32;31.00;97008.66;5075261;28;953;-77
2022/04/23 07:21:40;;;;;;;;;;;;;;;21.90;29.45;97006.25;5106397;28;1204;-77
2022/04/23 07:24:07;;;;;;;;;;;;;;;22.03;29.15;97004.06;5107582;28;959;-77
2022/04/23 07:26:34;;;;;;;;;;;;;;;21.45;29.91;97011.41;5092602;28;941;-78
2022/04/23 07:29:00;;;;;;;;;;;;;;;21.24;30.13;97018.69;5052008;28;967;-77
2022/04/23 07:31:25;;;;;;;;;;;;;;;21.25;30.17;97014.59;5052630;28;1988;-78
2022/04/23 07:39:19;;;;;;;;;;;;;;;21.66;30.33;97015.38;5052152;28;972;-77
2022/04/23 07:41:44;;;;;;;;;;;;;;;21.95;29.43;97014.13;5035190;28;966;-77
2022/04/23 07:44:09;;;;;;;;;;;;;;;21.46;30.08;97032.00;5052403;28;978;-77
2022/04/23 07:46:35;;;;;;;;;;;;;;;21.31;30.62;97024.06;5052121;28;987;-77
2022/04/23 07:49:01;;;;;;;;;;;;;;;21.21;30.86;97042.25;5052017;28;1146;-77
2022/04/23 07:51:27;;;;;;;;;;;;;;;21.25;30.35;97040.06;5052205;28;1975;-77
2022/04/23 07:53:55;;;;;;;;;;;;;;;21.17;30.87;97038.75;5053041;28;925;-78
2022/04/23 07:56:20;;;;;;;;;;;;;;;21.74;30.03;97039.28;5056176;28;980;-77
2022/04/23 07:58:46;;;;;;;;;;;;;;;22.00;29.63;97033.31;5055878;28;1141;-77
2022/04/23 08:01:11;;;;;;;;;;;;;;;21.42;30.22;97046.28;5056253;28;993;-78
2022/04/23 08:03:37;;;;;;;;;;;;;;;21.21;30.51;97036.59;5055727;28;978;-77
2022/04/23 08:06:02;;;;;;;;;;;;;;;20.98;30.79;97031.44;5063802;28;916;-78
2022/04/23 08:08:28;;;;;;;;;;;;;;;21.13;31.00;97048.63;5078206;28;926;-78
2022/04/23 08:10:53;;;;;;;;;;;;;;;21.67;29.87;97045.25;5077952;28;1898;-77
2022/04/23 08:13:19;;;;;;;;;;;;;;;22.03;29.13;97035.22;5078110;28;893;-78
2022/04/23 08:15:46;;;;;;;;;;;;;;;21.57;29.74;97043.66;5078199;28;891;-78
2022/04/23 08:18:11;;;;;;;;;;;;;;;21.14;30.20;97036.88;5078364;28;827;-77
2022/04/23 08:20:41;;;;;;;;;;;;;;;21.13;30.39;97046.59;5058955;28;1093;-77
2022/04/23 08:23:06;;;;;;;;;;;;;;;21.09;30.22;97045.97;5076594;28;1560;-77
2022/04/23 08:25:32;;;;;;;;;;;;;;;21.63;29.71;97038.16;5077833;28;1012;-77
2022/04/23 08:30:41;;;;;;;;;;;;;;;21.65;29.16;97047.75;5078101;28;1894;-78
2022/04/23 08:33:07;;;;;;;;;;;;;;;21.30;29.88;97050.81;5077827;28;914;-78
2022/04/23 08:35:32;;;;;;;;;;;;;;;21.19;29.85;97044.75;5077989;28;1000;-77
2022/04/23 08:38:18;;;;;;;;;;;;;;;21.01;30.31;97053.16;5077576;28;861;-77
2022/04/23 08:40:44;;;;;;;;;;;;;;;21.07;30.40;97048.47;5095825;28;926;-77
2022/04/23 08:43:10;;;;;;;;;;;;;;;21.56;29.34;97051.34;5095650;28;944;-78
2022/04/23 08:45:36;;;;;;;;;;;;;;;22.00;28.55;97034.09;5095199;28;973;-78
2022/04/23 08:48:01;;;;;;;;;;;;;;;21.91;28.68;97047.47;5078533;28;976;-78
2022/04/23 08:50:27;;;;;;;;;;;;;;;21.32;29.56;97039.78;5078431;28;1957;-78
2022/04/23 08:52:55;;;;;;;;;;;;;;;21.13;29.86;97046.59;5078114;28;1610;-78
2022/04/23 08:55:21;;;;;;;;;;;;;;;21.04;29.93;97038.88;5074459;28;1627;-77
2022/04/23 08:57:46;;;;;;;;;;;;;;;21.73;29.06;97037.69;5074529;28;1605;-77
2022/04/23 09:00:14;;;;;;;;;;;;;;;21.95;28.54;97039.63;5074965;28;919;-78
2022/04/23 09:02:41;;;;;;;;;;;;;;;22.17;28.59;97040.28;5074759;28;913;-78
2022/04/23 09:05:07;;;;;;;;;;;;;;;22.00;28.46;97033.31;5058047;28;1809;-77
2022/04/23 09:07:32;;;;;;;;;;;;;;;21.58;29.15;97042.38;5074434;28;1343;-77
2022/04/23 09:09:57;;;;;;;;;;;;;;;21.39;29.16;97035.09;5074665;28;1570;-78
2022/04/23 09:12:26;;;;;;;;;;;;;;;21.27;29.63;97040.38;5074428;28;1914;-77
2022/04/23 09:23:43;;;;;;;;;;;;;;;21.85;29.02;97045.25;4999607;28;1300;-77
2022/04/23 09:26:17;;;;;;;;;;;;;;;21.74;28.73;97050.59;5014351;28;982;-77
2022/04/23 09:28:46;;;;;;;;;;;;;;;21.38;29.27;97051.28;4998006;28;1520;-77
2022/04/23 09:31:12;;;;;;;;;;;;;;;21.36;29.52;97055.84;5014530;28;1977;-77
2022/04/23 09:33:49;;;;;;;;;;;;;;;21.22;29.82;97049.47;5014961;28;960;-77
2022/04/23 09:36:14;;;;;;;;;;;;;;;21.79;28.64;97041.47;4997900;28;1035;-78
2022/04/23 09:38:40;;;;;;;;;;;;;;;21.90;28.49;97058.00;5014538;28;1141;-78
2022/04/23 09:41:19;;;;;;;;;;;;;;;21.53;29.21;97062.81;5014230;28;1038;-78
2022/04/23 09:43:51;;;;;;;;;;;;;;;21.35;29.29;97048.59;5014581;28;903;-77
2022/04/23 09:46:16;;;;;;;;;;;;;;;21.19;29.61;97055.25;4981625;28;1044;-77
2022/04/23 09:48:43;;;;;;;;;;;;;;;21.03;29.92;97053.47;4991208;28;861;-77
2022/04/23 09:51:21;;;;;;;;;;;;;;;21.47;29.44;97053.38;4991429;28;1910;-77
2022/04/23 09:53:46;;;;;;;;;;;;;;;21.98;28.53;97052.84;4980820;28;1022;-78
2022/04/23 09:56:13;;;;;;;;;;;;;;;21.65;28.70;97053.41;5033514;28;925;-78
2022/04/23 09:58:39;;;;;;;;;;;;;;;21.39;29.15;97052.06;5050177;28;1002;-78
2022/04/23 10:01:07;;;;;;;;;;;;;;;21.06;29.68;97058.22;5033829;28;955;-78
2022/04/23 10:03:38;;;;;;;;;;;;;;;20.98;30.12;97045.59;5049510;28;957;-78
2022/04/23 10:06:14;;;;;;;;;;;;;;;21.01;29.98;97056.75;5033982;28;1694;-77
2022/04/23 10:08:42;;;;;;;;;;;;;;;21.53;29.03;97045.84;5003441;28;1201;-77
2022/04/23 10:11:10;;;;;;;;;;;;;;;21.92;28.67;97054.72;5053498;28;1906;-78
2022/04/23 10:13:35;;;;;;;;;;;;;;;21.89;28.47;97047.94;5053379;28;995;-78
2022/04/23 10:16:02;;;;;;;;;;;;;;;21.50;29.09;97046.75;5028478;28;2064;-77
2022/04/23 10:18:27;;;;;;;;;;;;;;;21.27;29.67;97046.03;5055296;28;947;-77
2022/04/23 10:20:59;;;;;;;;;;;;;;;21.13;30.04;97043.78;5055931;28;903;-77
2022/04/23 10:23:27;;;;;;;;;;;;;;;21.18;29.54;97046.00;5086635;28;1118;-77
2022/04/23 10:26:11;;;;;;;;;;;;;;;21.55;29.21;97049.78;5055937;28;879;-78
2022/04/23 10:28:47;;;;;;;;;;;;;;;21.92;28.66;97044.19;5055089;28;1147;-77
2022/04/23 10:31:16;;;;;;;;;;;;;;;21.56;28.93;97037.19;5088111;28;1918;-78
2022/04/23 10:33:51;;;;;;;;;;;;;;;21.22;29.59;97046.66;5072629;28;1484;-77
2022/04/23 10:36:17;;;;;;;;;;;;;;;21.20;29.78;97052.00;5072812;28;991;-77
2022/04/23 10:38:45;;;;;;;;;;;;;;;21.47;29.19;97042.03;5073019;28;882;-77
2022/04/23 10:41:12;;;;;;;;;;;;;;;21.82;28.59;97046.22;5073090;28;898;-78
2022/04/23 10:43:57;;;;;;;;;;;;;;;21.68;28.78;97041.16;5072635;28;951;-77
2022/04/23 10:46:40;;;;;;;;;;;;;;;21.26;29.62;97050.13;5072138;28;880;-77
2022/04/23 10:49:35;;;;;;;;;;;;;;;21.14;30.13;97053.84;5072997;28;926;-77
2022/04/23 10:52:00;;;;;;;;;;;;;;;21.08;30.01;97050.03;5012689;28;1989;-77
2022/04/23 10:54:49;;;;;;;;;;;;;;;21.23;29.66;97010.66;4996976;28;952;-76
2022/04/23 10:57:15;;;;;;;;;;;;;;;22.04;28.67;97050.97;4954969;29;955;-77
2022/04/23 10:59:43;;;;;;;;;;;;;;;21.59;29.19;97060.94;4954899;29;929;-77
2022/04/23 11:02:13;;;;;;;;;;;;;;;21.42;29.46;97046.28;4954367;29;1018;-77
2022/04/23 11:12:14;;;;;;;;;;;;;;;21.20;29.96;97054.03;4936190;29;1019;-77
2022/04/23 11:13:23;;;;;;;;;;;;;;;21.75;28.71;97052.16;4916347;29;942;-77
2022/04/23 11:16:08;;;;;;;;;;;;;;;21.28;29.78;97058.91;4931738;29;1253;-77
2022/04/23 11:18:33;;;;;;;;;;;;;;;21.22;30.11;97060.78;4916345;29;909;-77
2022/04/23 11:21:12;;;;;;;;;;;;;;;21.10;30.28;97050.38;4932080;29;1074;-77
2022/04/23 11:23:39;;;;;;;;;;;;;;;21.52;29.80;97055.59;4932385;29;964;-77
2022/04/23 11:26:06;;;;;;;;;;;;;;;21.99;29.10;97060.09;4951331;28;966;-77
2022/04/23 11:28:31;;;;;;;;;;;;;;;21.58;29.52;97059.38;4957903;28;1022;-78
2022/04/23 11:31:00;;;;;;;;;;;;;;;21.23;30.28;97055.91;4996886;28;1987;-77
2022/04/23 11:33:26;;;;;;;;;;;;;;;21.06;30.79;97047.69;4990358;28;1038;-77
2022/04/23 11:35:56;;;;;;;;;;;;;;;21.28;30.23;97049.66;5056389;28;948;-77
2022/04/23 11:38:22;;;;;;;;;;;;;;;21.49;30.24;97053.69;5039302;28;1016;-77
2022/04/23 11:40:48;;;;;;;;;;;;;;;21.96;29.25;97055.34;5040190;28;928;-78
2022/04/23 11:43:27;;;;;;;;;;;;;;;21.82;29.57;97040.56;5040151;28;990;-77
2022/04/23 11:45:57;;;;;;;;;;;;;;;21.36;30.31;97056.63;5056345;28;942;-77
2022/04/23 11:48:23;;;;;;;;;;;;;;;21.08;30.77;97055.69;5056034;28;1036;-77
2022/04/23 11:50:49;;;;;;;;;;;;;;;21.22;30.91;97048.69;5022356;28;1989;-77
2022/04/23 11:53:14;;;;;;;;;;;;;;;21.78;29.65;97054.06;5056142;28;911;-77
2022/04/23 11:55:39;;;;;;;;;;;;;;;22.10;28.93;97044.22;5056022;28;975;-77
2022/04/23 11:58:05;;;;;;;;;;;;;;;21.47;29.96;97053.38;4986786;28;941;-78
2022/04/23 12:00:33;;;;;;;;;;;;;;;21.26;30.27;97047.28;5054897;28;971;-77
2022/04/23 12:02:59;;;;;;;;;;;;;;;21.12;30.58;97050.69;5089148;28;981;-76
2022/04/23 12:05:25;;;;;;;;;;;;;;;21.14;30.56;97053.03;5058347;28;911;-77
2022/04/23 12:07:51;;;;;;;;;;;;;;;21.56;30.15;97050.56;5090641;28;1042;-77
2022/04/23 12:10:21;;;;;;;;;;;;;;;21.87;29.43;97041.19;5091016;28;901;-77
2022/04/23 12:12:47;;;;;;;;;;;;;;;21.55;29.81;97044.13;5058556;28;1902;-77
2022/04/23 12:15:12;;;;;;;;;;;;;;;21.25;30.29;97042.09;5057337;28;911;-77
2022/04/23 12:17:45;;;;;;;;;;;;;;;21.20;30.38;97034.22;5090261;28;1016;-77
2022/04/23 12:20:12;;;;;;;;;;;;;;;21.06;30.78;97032.75;5058089;28;895;-77
2022/04/23 12:22:37;;;;;;;;;;;;;;;21.62;29.60;97043.03;5057332;28;1048;-77
2022/04/23 12:25:09;;;;;;;;;;;;;;;22.03;28.88;97021.84;5075930;28;1228;-77
2022/04/23 12:27:53;;;;;;;;;;;;;;;21.55;29.43;97037.66;5076903;28;1264;-77
2022/04/23 12:41:34;;;;;;;;;;;;;;;21.79;29.34;97024.50;5076200;28;909;-77
2022/04/23 12:44:20;;;;;;;;;;;;;;;22.11;28.82;97028.00;5074634;28;1015;-77
2022/04/23 12:46:52;;;;;;;;;;;;;;;21.32;29.77;97028.47;5076346;28;1262;-77
2022/04/23 12:49:18;;;;;;;;;;;;;;;21.16;30.07;97034.38;5075011;28;1147;-77
2022/04/23 12:51:53;;;;;;;;;;;;;;;21.32;30.16;97036.97;5076316;28;1976;-77
2022/04/23 12:54:21;;;;;;;;;;;;;;;21.78;29.18;97037.09;5075387;28;991;-76
2022/04/23 12:56:47;;;;;;;;;;;;;;;22.01;28.76;97034.91;5076185;28;874;-78
2022/04/23 12:59:12;;;;;;;;;;;;;;;21.46;29.60;97034.81;5073702;28;1036;-77
2022/04/23 13:01:38;;;;;;;;;;;;;;;21.14;30.19;97045.38;5073720;28;954;-77
2022/04/23 13:04:05;;;;;;;;;;;;;;;21.07;30.38;97042.81;5074223;28;961;-77
2022/04/23 13:09:14;;;;;;;;;;;;;;;21.64;29.33;97045.38;5073713;28;961;-77
2022/04/23 13:11:39;;;;;;;;;;;;;;;21.95;28.62;97050.94;5073816;28;1910;-77
2022/04/23 13:14:05;;;;;;;;;;;;;;;21.72;28.61;97041.78;5057101;28;956;-77
2022/04/23 13:16:31;;;;;;;;;;;;;;;21.37;29.54;97037.63;5073606;28;871;-77
2022/04/23 13:19:00;;;;;;;;;;;;;;;21.06;30.04;97041.22;5073228;28;1036;-77
2022/04/23 13:21:29;;;;;;;;;;;;;;;21.11;29.80;97037.81;5063853;28;169901;-77
2022/04/23 13:23:55;;;;;;;;;;;;;;;21.70;29.07;97041.47;5062339;28;974;-76
2022/04/23 13:26:21;;;;;;;;;;;;;;;22.07;28.48;97027.34;5038035;28;959;-77
2022/04/23 13:28:47;;;;;;;;;;;;;;;21.74;28.67;97036.44;5037909;28;1117;-78
2022/04/23 13:31:13;;;;;;;;;;;;;;;21.29;29.59;97037.06;5072623;28;1987;-77
2022/04/23 13:33:39;;;;;;;;;;;;;;;21.20;29.91;97042.72;5053895;28;953;-77
2022/04/23 13:36:05;;;;;;;;;;;;;;;21.39;29.64;97046.41;5014443;28;1046;-77
2022/04/23 13:38:30;;;;;;;;;;;;;;;21.78;29.15;97039.91;5014341;28;922;-77
2022/04/23 13:40:56;;;;;;;;;;;;;;;22.12;28.29;97034.44;5014584;28;972;-77